Norcross, Georgia
Current Conditions -  °F | °C
As of 12:53 PM on Monday 26 Jan 2015 (Local Time) from KPDK Reporting Station
Overcast Overcast  
Wind Chill: 32°   Ceiling: 2200
Heat Index: 41°   Visibility: 10mi
Dew Point: 33°   Wind: 20mph
Humidity: 73%   Direction: 310°NW
Pressure: 29.84"   Gusts: 29mph
Location:  33.94°N, 84.21°W
Report Text: KPDK 261753Z 31017G25KT 10SM BKN022 OVC030 05/01 A2984 RMK AO2 PK WND 30026/1655 SLP114 T00500006 10072 20050 51011
Loading
Personal Weather Stations






























Interactive Weather Map New forecast layout! Learn more

10-Day Weather Forecast

Advertisements
Track Severe Weather on mobile